createdAt,value
2018-10-05T00:02:24.345Z,12.55
2018-10-05T00:04:52.076Z,12.32
2018-10-05T00:07:19.817Z,12.38
2018-10-05T00:09:47.542Z,12.35
2018-10-05T00:12:15.254Z,12.40
2018-10-05T00:14:42.982Z,12.15
2018-10-05T00:17:11.044Z,12.10
2018-10-05T00:19:38.756Z,12.10
2018-10-05T00:22:06.637Z,12.00
2018-10-05T00:24:34.373Z,11.89
2018-10-05T00:27:02.088Z,11.96
2018-10-05T00:29:29.802Z,11.89
2018-10-05T00:31:57.508Z,12.11
2018-10-05T00:34:25.213Z,11.92
2018-10-05T00:36:52.925Z,12.15
2018-10-05T00:39:20.648Z,12.22
2018-10-05T00:41:48.353Z,12.36
2018-10-05T00:44:16.067Z,12.10
2018-10-05T00:46:43.868Z,11.85
2018-10-05T00:49:11.591Z,11.85
2018-10-05T00:51:39.308Z,11.61
2018-10-05T00:54:07.041Z,11.60
2018-10-05T00:56:34.763Z,11.72
2018-10-05T00:59:02.499Z,12.23
2018-10-05T01:01:30.236Z,12.24
2018-10-05T01:03:57.965Z,12.41
2018-10-05T01:06:25.681Z,12.13
2018-10-05T01:08:53.385Z,11.87
2018-10-05T01:11:21.159Z,11.86
2018-10-05T01:13:48.855Z,11.60
2018-10-05T01:16:16.573Z,11.54
2018-10-05T01:18:44.277Z,11.54
2018-10-05T01:21:11.997Z,11.36
2018-10-05T01:23:39.726Z,11.47
2018-10-05T01:26:07.429Z,11.74
2018-10-05T01:28:35.145Z,11.66
2018-10-05T01:31:02.878Z,11.65
2018-10-05T01:33:30.600Z,11.67
2018-10-05T01:35:58.328Z,11.50
2018-10-05T01:38:26.051Z,11.62
2018-10-05T01:40:53.772Z,11.93
2018-10-05T01:43:21.550Z,11.89
2018-10-05T01:45:49.264Z,11.87
2018-10-05T01:48:16.977Z,11.68
2018-10-05T01:50:44.682Z,11.89
2018-10-05T01:53:12.406Z,12.20
2018-10-05T01:55:40.124Z,11.64
2018-10-05T01:58:07.851Z,11.64
2018-10-05T02:00:35.564Z,11.77
2018-10-05T02:03:03.262Z,11.56
2018-10-05T02:05:31.389Z,11.63
2018-10-05T02:07:59.089Z,11.38
2018-10-05T02:10:26.793Z,11.40
2018-10-05T02:12:54.498Z,11.67
2018-10-05T02:15:22.189Z,11.51
2018-10-05T02:17:49.907Z,11.52
2018-10-05T02:20:17.644Z,11.65
2018-10-05T02:22:45.372Z,11.70
2018-10-05T02:25:13.080Z,11.92
2018-10-05T02:27:40.895Z,11.53
2018-10-05T02:30:08.552Z,11.43
2018-10-05T02:32:36.292Z,11.07
2018-10-05T02:35:04.163Z,11.21
2018-10-05T02:37:31.869Z,11.44
2018-10-05T02:39:59.557Z,11.05
2018-10-05T02:42:27.265Z,11.15
2018-10-05T02:44:55.004Z,10.98
2018-10-05T02:47:22.729Z,11.25
2018-10-05T02:49:50.502Z,10.92
2018-10-05T02:52:18.206Z,10.64
2018-10-05T02:54:45.913Z,10.98
2018-10-05T02:57:13.635Z,10.81
2018-10-05T02:59:41.369Z,11.07
2018-10-05T03:02:20.257Z,11.16
2018-10-05T03:04:47.983Z,11.20
2018-10-05T03:07:15.678Z,11.38
2018-10-05T03:09:43.378Z,11.03
2018-10-05T03:12:11.092Z,10.91
2018-10-05T03:14:38.820Z,11.01
2018-10-05T03:17:06.544Z,11.30
2018-10-05T03:19:34.312Z,11.36
2018-10-05T03:22:02.037Z,11.72
2018-10-05T03:24:29.750Z,11.61
2018-10-05T03:26:57.454Z,10.95
2018-10-05T03:29:25.259Z,10.74
2018-10-05T03:31:53.004Z,10.43
2018-10-05T03:34:20.732Z,10.69
2018-10-05T03:36:48.438Z,10.61
2018-10-05T03:39:16.142Z,10.45
2018-10-05T03:41:43.853Z,10.30
2018-10-05T03:44:11.575Z,10.51
2018-10-05T03:46:39.304Z,10.30
2018-10-05T03:49:07.015Z,10.51
2018-10-05T03:51:34.717Z,10.25
2018-10-05T03:54:02.526Z,10.21
2018-10-05T03:56:30.239Z,10.19
2018-10-05T03:58:58.007Z,10.12
2018-10-05T04:01:25.721Z,10.04
2018-10-05T04:03:53.418Z,9.76
2018-10-05T04:06:21.148Z,10.24
2018-10-05T04:08:48.857Z,10.56
2018-10-05T04:11:16.877Z,10.42
2018-10-05T04:13:44.582Z,10.51
2018-10-05T04:16:12.297Z,10.38
2018-10-05T04:18:40.020Z,10.21
2018-10-05T04:21:07.767Z,10.37
2018-10-05T04:23:35.478Z,10.03
2018-10-05T04:26:03.197Z,10.15
2018-10-05T04:28:30.988Z,9.94
2018-10-05T04:30:58.854Z,9.94
2018-10-05T04:33:26.560Z,10.07
2018-10-05T04:35:54.292Z,10.16
2018-10-05T04:38:22.016Z,10.12
2018-10-05T04:40:49.727Z,10.13
2018-10-05T04:43:17.440Z,9.77
2018-10-05T04:45:45.176Z,10.02
2018-10-05T04:48:12.876Z,9.95
2018-10-05T04:50:40.597Z,10.28
2018-10-05T04:53:08.308Z,10.53
2018-10-05T04:55:36.101Z,10.30
2018-10-05T04:58:03.918Z,10.60
2018-10-05T05:00:31.615Z,10.75
2018-10-05T05:02:59.412Z,10.80
2018-10-05T05:05:27.208Z,10.45
2018-10-05T05:07:54.964Z,10.39
2018-10-05T05:10:22.720Z,10.27
2018-10-05T05:12:50.443Z,10.29
2018-10-05T05:15:18.211Z,10.47
2018-10-05T05:17:45.956Z,10.51
2018-10-05T05:20:13.682Z,10.74
2018-10-05T05:22:41.451Z,10.83
2018-10-05T05:25:09.166Z,10.60
2018-10-05T05:27:36.993Z,10.67
2018-10-05T05:30:04.965Z,11.04
2018-10-05T05:32:32.676Z,11.12
2018-10-05T05:35:00.400Z,11.11
2018-10-05T05:37:28.117Z,11.13
2018-10-05T05:39:55.813Z,11.31
2018-10-05T05:42:23.555Z,11.19
2018-10-05T05:44:51.296Z,11.51
2018-10-05T05:47:19.053Z,11.50
2018-10-05T05:49:46.770Z,11.64
2018-10-05T05:52:14.513Z,11.78
2018-10-05T05:54:42.263Z,12.02
2018-10-05T05:57:09.996Z,12.13
2018-10-05T05:59:37.738Z,11.94
2018-10-05T06:02:05.526Z,12.18
2018-10-05T06:04:33.242Z,12.48
2018-10-05T06:07:00.991Z,12.59
2018-10-05T06:09:28.712Z,12.58
2018-10-05T06:11:56.432Z,12.57
2018-10-05T06:14:24.160Z,12.66
2018-10-05T06:16:51.904Z,12.71
2018-10-05T06:19:19.669Z,12.84
2018-10-05T06:21:47.570Z,12.93
2018-10-05T06:24:15.195Z,13.04
2018-10-05T06:26:42.919Z,13.07
2018-10-05T06:29:10.643Z,13.46
2018-10-05T06:31:38.370Z,13.17
2018-10-05T06:34:06.472Z,13.21
2018-10-05T06:36:34.212Z,13.30
2018-10-05T06:39:02.105Z,13.36
2018-10-05T06:41:29.856Z,13.47
2018-10-05T06:43:57.578Z,13.70
2018-10-05T06:46:25.310Z,13.69
2018-10-05T06:48:53.027Z,13.74
2018-10-05T06:51:20.765Z,13.87
2018-10-05T06:53:48.492Z,14.09
2018-10-05T06:56:16.230Z,14.04
2018-10-05T06:58:44.055Z,14.11
2018-10-05T07:01:11.774Z,14.08
2018-10-05T07:03:39.532Z,14.25
2018-10-05T07:06:07.282Z,14.26
2018-10-05T07:08:35.016Z,14.26
2018-10-05T07:11:02.919Z,14.38
2018-10-05T07:13:30.675Z,14.46
2018-10-05T07:15:58.480Z,14.38
2018-10-05T07:18:26.191Z,14.54
2018-10-05T07:20:53.920Z,14.72
2018-10-05T07:23:21.645Z,14.72
2018-10-05T07:25:49.360Z,14.87
2018-10-05T07:28:17.154Z,15.04
2018-10-05T07:30:44.839Z,15.15
2018-10-05T07:33:12.568Z,15.24
2018-10-05T07:35:40.286Z,15.20
2018-10-05T07:38:07.997Z,15.29
2018-10-05T07:40:35.743Z,15.36
2018-10-05T07:43:03.493Z,15.47
2018-10-05T07:45:31.229Z,15.54
2018-10-05T07:47:58.949Z,15.65
2018-10-05T07:50:26.706Z,15.78
2018-10-05T07:52:54.418Z,15.76
2018-10-05T07:55:22.187Z,15.92
2018-10-05T07:57:49.959Z,15.86
2018-10-05T08:00:17.723Z,15.98
2018-10-05T08:02:45.460Z,16.04
2018-10-05T08:05:13.203Z,16.05
2018-10-05T08:07:40.928Z,16.03
2018-10-05T08:10:08.756Z,16.06
2018-10-05T08:12:36.505Z,16.10
2018-10-05T08:15:05.018Z,16.17
2018-10-05T08:17:32.811Z,16.28
2018-10-05T08:20:00.585Z,16.33
2018-10-05T08:22:28.312Z,16.49
2018-10-05T08:24:56.052Z,16.49
2018-10-05T08:27:23.785Z,16.60
2018-10-05T08:29:51.505Z,16.67
2018-10-05T08:32:19.269Z,16.67
2018-10-05T08:34:47.050Z,16.91
2018-10-05T08:37:14.817Z,16.97
2018-10-05T08:39:42.616Z,16.96
2018-10-05T08:42:10.317Z,16.89
2018-10-05T08:44:38.042Z,17.02
2018-10-05T08:47:05.788Z,17.04
2018-10-05T08:49:33.515Z,17.09
2018-10-05T08:52:01.381Z,17.24
2018-10-05T08:54:28.978Z,17.49
2018-10-05T08:56:56.710Z,17.50
2018-10-05T08:59:27.701Z,17.56
2018-10-05T09:01:55.426Z,17.74
2018-10-05T09:04:23.149Z,17.71
2018-10-05T09:06:50.903Z,17.83
2018-10-05T09:09:18.664Z,17.90
2018-10-05T09:11:47.276Z,17.83
2018-10-05T09:14:15.048Z,17.78
2018-10-05T09:16:42.804Z,17.96
2018-10-05T09:19:10.528Z,18.33
2018-10-05T09:21:38.250Z,18.20
2018-10-05T09:24:06.071Z,18.07
2018-10-05T09:26:33.816Z,18.12
2018-10-05T09:29:01.542Z,17.94
2018-10-05T09:31:29.275Z,18.00
2018-10-05T09:33:57.050Z,18.12
2018-10-05T09:36:24.826Z,18.06
2018-10-05T09:38:52.591Z,18.18
2018-10-05T09:41:20.351Z,18.29
2018-10-05T09:43:48.088Z,18.47
2018-10-05T09:46:15.989Z,18.95
2018-10-05T09:48:43.706Z,18.88
2018-10-05T09:51:11.457Z,18.87
2018-10-05T09:53:39.191Z,18.85
2018-10-05T09:56:06.948Z,18.90
2018-10-05T09:58:34.669Z,19.00
2018-10-05T10:01:07.803Z,19.22
2018-10-05T10:03:36.526Z,19.35
2018-10-05T10:06:05.161Z,19.22
2018-10-05T10:08:32.917Z,19.37
2018-10-05T10:11:00.728Z,19.40
2018-10-05T10:13:28.534Z,19.37
2018-10-05T10:15:56.274Z,19.24
2018-10-05T10:18:24.010Z,19.46
2018-10-05T10:20:51.734Z,19.48
2018-10-05T10:23:19.484Z,19.69
2018-10-05T10:25:47.255Z,19.50
2018-10-05T10:28:15.046Z,19.59
2018-10-05T10:30:42.806Z,19.67
2018-10-05T10:33:10.529Z,19.71
2018-10-05T10:35:38.258Z,19.84
2018-10-05T10:38:06.061Z,19.99
2018-10-05T10:40:33.757Z,20.08
2018-10-05T10:43:01.534Z,20.06
2018-10-05T10:45:29.274Z,20.11
2018-10-05T10:47:57.010Z,20.29
2018-10-05T10:50:24.733Z,20.32
2018-10-05T10:52:52.543Z,19.98
2018-10-05T10:55:20.287Z,19.95
2018-10-05T10:57:47.997Z,20.02
2018-10-05T11:00:15.762Z,20.26
2018-10-05T11:02:43.522Z,20.38
2018-10-05T11:05:11.239Z,20.21
2018-10-05T11:07:39.206Z,20.19
2018-10-05T11:10:07.114Z,19.98
2018-10-05T11:12:34.942Z,19.98
2018-10-05T11:15:02.749Z,20.11
2018-10-05T11:17:30.658Z,20.11
2018-10-05T11:19:58.581Z,19.92
2018-10-05T11:22:26.360Z,20.00
2018-10-05T11:24:54.076Z,20.22
2018-10-05T11:27:21.791Z,20.28
2018-10-05T11:29:49.585Z,20.16
2018-10-05T11:32:17.322Z,20.22
2018-10-05T11:34:45.045Z,20.32
2018-10-05T11:37:12.783Z,20.44
2018-10-05T11:39:40.499Z,20.45
2018-10-05T11:42:08.206Z,20.26
2018-10-05T11:44:35.909Z,20.45
2018-10-05T11:47:03.684Z,20.42
2018-10-05T11:49:31.430Z,20.46
2018-10-05T11:51:59.294Z,20.69
2018-10-05T11:54:27.095Z,20.69
2018-10-05T11:56:54.946Z,20.60
2018-10-05T11:59:22.719Z,20.78
2018-10-05T12:01:50.597Z,20.79
2018-10-05T12:04:18.964Z,20.53
2018-10-05T12:06:46.778Z,20.48
2018-10-05T12:09:15.435Z,20.58
2018-10-05T12:11:43.249Z,20.63
2018-10-05T12:14:10.965Z,20.52
2018-10-05T12:16:39.650Z,20.42
2018-10-05T12:19:07.377Z,20.64
2018-10-05T12:21:35.095Z,20.60
2018-10-05T12:24:03.642Z,20.73
2018-10-05T12:26:33.189Z,20.84
2018-10-05T12:29:00.918Z,20.77
2018-10-05T12:31:30.802Z,20.81
2018-10-05T12:33:58.644Z,20.89
2018-10-05T12:36:26.358Z,20.79
2018-10-05T12:38:54.079Z,20.73
2018-10-05T12:41:21.808Z,20.70
2018-10-05T12:43:50.534Z,20.78
2018-10-05T12:46:18.286Z,20.77
2018-10-05T12:48:46.041Z,20.88
2018-10-05T12:51:13.774Z,20.76
2018-10-05T12:53:42.078Z,20.74
2018-10-05T12:56:10.438Z,20.72
2018-10-05T12:58:38.193Z,20.65
2018-10-05T13:01:06.655Z,20.80
2018-10-05T13:03:35.298Z,20.90
2018-10-05T13:06:03.055Z,20.77
2018-10-05T13:08:30.762Z,20.79
2018-10-05T13:10:59.290Z,20.58
2018-10-05T13:13:27.638Z,20.52
2018-10-05T13:15:55.939Z,20.43
2018-10-05T13:18:24.595Z,20.54
2018-10-05T13:20:52.353Z,20.41
2018-10-05T13:23:20.061Z,20.58
2018-10-05T13:25:47.822Z,20.58
2018-10-05T13:28:15.530Z,20.59
2018-10-05T13:30:43.277Z,20.60
2018-10-05T13:33:11.014Z,20.50
2018-10-05T13:35:38.735Z,20.46
2018-10-05T13:38:07.299Z,20.39
2018-10-05T13:40:35.038Z,20.45
2018-10-05T13:43:02.754Z,20.39
2018-10-05T13:45:30.503Z,20.39
2018-10-05T13:47:58.239Z,20.33
2018-10-05T13:50:25.979Z,20.30
2018-10-05T13:52:53.757Z,20.24
2018-10-05T13:55:21.478Z,20.31
2018-10-05T13:57:49.263Z,20.29
2018-10-05T14:00:17.537Z,20.25
2018-10-05T14:02:45.304Z,20.32
2018-10-05T14:05:13.630Z,20.26
2018-10-05T14:07:41.351Z,20.27
2018-10-05T14:10:09.094Z,20.24
2018-10-05T14:12:36.825Z,20.23
2018-10-05T14:15:04.665Z,20.14
2018-10-05T14:17:32.951Z,20.28
2018-10-05T14:20:00.687Z,20.16
2018-10-05T14:22:28.418Z,20.18
2018-10-05T14:24:57.067Z,20.07
2018-10-05T14:27:24.827Z,20.16
2018-10-05T14:29:52.556Z,20.12
2018-10-05T14:32:20.417Z,20.15
2018-10-05T14:34:48.824Z,20.10
2018-10-05T14:37:16.543Z,20.05
2018-10-05T14:39:44.255Z,20.04
2018-10-05T14:42:11.991Z,19.95
2018-10-05T14:44:39.818Z,20.10
2018-10-05T14:47:07.528Z,20.14
2018-10-05T14:49:35.396Z,20.10
2018-10-05T14:52:03.126Z,20.06
2018-10-05T14:54:30.951Z,20.06
2018-10-05T14:56:58.701Z,20.06
2018-10-05T14:59:26.385Z,19.88
2018-10-05T15:01:54.119Z,20.08
2018-10-05T15:04:21.863Z,20.14
2018-10-05T15:06:49.658Z,20.08
2018-10-05T15:09:17.379Z,20.01
2018-10-05T15:11:45.078Z,19.80
2018-10-05T15:14:12.778Z,19.92
2018-10-05T15:16:40.510Z,19.92
2018-10-05T15:19:08.210Z,19.93
2018-10-05T15:21:35.948Z,19.95
2018-10-05T15:24:03.683Z,19.91
2018-10-05T15:26:31.386Z,19.76
2018-10-05T15:28:59.094Z,19.82
2018-10-05T15:31:26.842Z,19.84
2018-10-05T15:33:54.538Z,19.84
2018-10-05T15:36:22.271Z,19.86
2018-10-05T15:38:50.021Z,19.81
2018-10-05T15:41:17.698Z,19.63
2018-10-05T15:43:45.406Z,19.60
2018-10-05T15:46:23.010Z,19.60
2018-10-05T15:48:50.746Z,19.37
2018-10-05T15:51:18.472Z,19.38
2018-10-05T15:53:46.176Z,19.29
2018-10-05T15:56:13.888Z,19.20
2018-10-05T15:58:41.591Z,19.02
2018-10-05T16:01:09.341Z,19.08
2018-10-05T16:03:37.054Z,19.03
2018-10-05T16:06:04.801Z,19.06
2018-10-05T16:08:32.489Z,18.99
2018-10-05T16:11:00.309Z,18.70
2018-10-05T16:13:28.006Z,18.49
2018-10-05T16:15:55.725Z,18.46
2018-10-05T16:18:23.525Z,18.69
2018-10-05T16:20:51.194Z,18.43
2018-10-05T16:23:18.890Z,18.40
2018-10-05T16:25:46.610Z,18.31
2018-10-05T16:28:14.343Z,18.16
2018-10-05T16:30:42.070Z,18.06
2018-10-05T16:33:09.762Z,18.06
2018-10-05T16:35:37.461Z,17.97
2018-10-05T16:38:05.324Z,17.86
2018-10-05T16:40:33.025Z,17.98
2018-10-05T16:43:00.755Z,17.89
2018-10-05T16:45:28.446Z,17.94
2018-10-05T16:47:56.170Z,17.70
2018-10-05T16:50:24.506Z,17.72
2018-10-05T16:52:52.734Z,17.69
2018-10-05T16:55:20.434Z,17.60
2018-10-05T16:57:48.149Z,17.65
2018-10-05T17:00:15.864Z,17.62
2018-10-05T17:02:43.570Z,17.29
2018-10-05T17:05:11.302Z,17.36
2018-10-05T17:07:39.011Z,17.10
2018-10-05T17:10:06.912Z,16.80
2018-10-05T17:12:34.622Z,16.85
2018-10-05T17:15:02.347Z,16.83
2018-10-05T17:17:30.057Z,17.18
2018-10-05T17:19:57.762Z,17.13
2018-10-05T17:22:25.481Z,17.30
2018-10-05T17:24:53.245Z,17.26
2018-10-05T17:27:21.003Z,17.34
2018-10-05T17:29:48.701Z,17.19
2018-10-05T17:32:16.417Z,17.41
2018-10-05T17:34:44.136Z,17.31
2018-10-05T17:37:12.922Z,17.19
2018-10-05T17:39:40.551Z,16.89
2018-10-05T17:42:08.268Z,16.61
2018-10-05T17:44:35.967Z,16.60
2018-10-05T17:47:03.677Z,16.40
2018-10-05T17:49:33.332Z,16.17
2018-10-05T17:52:01.113Z,16.15
2018-10-05T17:54:30.473Z,16.00
2018-10-05T17:56:59.864Z,16.04
2018-10-05T17:59:27.590Z,16.12
2018-10-05T18:01:55.390Z,15.75
2018-10-05T18:04:23.118Z,15.63
2018-10-05T18:06:50.862Z,15.69
2018-10-05T18:09:18.605Z,15.99
2018-10-05T18:11:46.304Z,16.02
2018-10-05T18:14:14.125Z,16.25
2018-10-05T18:16:41.831Z,15.98
2018-10-05T18:19:09.538Z,15.50
2018-10-05T18:21:37.282Z,15.29
2018-10-05T18:24:04.995Z,15.75
2018-10-05T18:26:32.715Z,16.02
2018-10-05T18:29:00.537Z,16.15
2018-10-05T18:31:28.270Z,16.06
2018-10-05T18:33:56.016Z,15.64
2018-10-05T18:36:23.757Z,16.13
2018-10-05T18:38:51.465Z,16.05
2018-10-05T18:41:19.216Z,15.92
2018-10-05T18:43:46.973Z,15.77
2018-10-05T18:46:14.722Z,15.85
2018-10-05T18:48:42.491Z,15.47
2018-10-05T18:51:10.290Z,15.43
2018-10-05T18:53:37.998Z,15.74
2018-10-05T18:56:16.946Z,15.57
2018-10-05T18:58:44.666Z,15.89
2018-10-05T19:01:12.399Z,16.16
2018-10-05T19:03:40.105Z,15.83
2018-10-05T19:06:07.829Z,15.37
2018-10-05T19:08:36.190Z,15.53
2018-10-05T19:11:03.920Z,15.37
2018-10-05T19:13:31.666Z,15.63
2018-10-05T19:15:59.404Z,15.87
2018-10-05T19:18:27.861Z,15.65
2018-10-05T19:20:55.659Z,15.43
2018-10-05T19:23:23.484Z,15.17
2018-10-05T19:25:51.298Z,14.98
2018-10-05T19:28:18.986Z,15.18
2018-10-05T19:30:46.700Z,15.08
2018-10-05T19:33:14.515Z,14.92
2018-10-05T19:35:42.227Z,15.00
2018-10-05T19:38:09.943Z,15.15
2018-10-05T19:40:37.642Z,15.09
2018-10-05T19:43:05.383Z,14.84
2018-10-05T19:45:33.098Z,14.97
2018-10-05T19:48:00.809Z,14.93
2018-10-05T19:50:28.543Z,14.96
2018-10-05T19:52:56.315Z,14.76
2018-10-05T19:55:24.003Z,14.83
2018-10-05T19:57:51.718Z,15.05
2018-10-05T20:00:19.442Z,15.03
2018-10-05T20:02:47.142Z,15.18
2018-10-05T20:05:14.855Z,14.86
2018-10-05T20:07:42.570Z,14.83
2018-10-05T20:10:10.344Z,14.73
2018-10-05T20:12:38.042Z,14.88
2018-10-05T20:15:05.953Z,14.97
2018-10-05T20:17:33.747Z,15.04
2018-10-05T20:20:01.456Z,15.00
2018-10-05T20:22:29.162Z,15.00
2018-10-05T20:24:56.865Z,14.72
2018-10-05T20:27:24.573Z,14.91
2018-10-05T20:29:52.278Z,14.66
2018-10-05T20:32:19.997Z,14.80
2018-10-05T20:34:47.698Z,14.80
2018-10-05T20:37:20.130Z,15.13
2018-10-05T20:39:48.732Z,15.10
2018-10-05T20:42:16.459Z,14.98
2018-10-05T20:44:44.192Z,14.98
2018-10-05T20:47:11.922Z,14.92
2018-10-05T20:49:39.742Z,14.92
2018-10-05T20:52:07.455Z,15.04
2018-10-05T20:54:35.165Z,14.68
2018-10-05T20:57:02.866Z,14.90
2018-10-05T20:59:30.566Z,14.55
2018-10-05T21:01:58.274Z,14.54
2018-10-05T21:04:26.090Z,14.41
2018-10-05T21:06:53.939Z,14.54
2018-10-05T21:09:21.658Z,14.86
2018-10-05T21:11:49.425Z,14.75
2018-10-05T21:14:17.157Z,14.40
2018-10-05T21:16:44.925Z,14.38
2018-10-05T21:19:12.659Z,14.21
2018-10-05T21:21:40.362Z,14.06
2018-10-05T21:24:08.105Z,14.18
2018-10-05T21:26:35.825Z,14.36
2018-10-05T21:29:03.711Z,14.36
2018-10-05T21:31:31.486Z,14.38
2018-10-05T21:33:59.185Z,14.10
2018-10-05T21:36:26.902Z,13.73
2018-10-05T21:38:54.708Z,13.74
2018-10-05T21:41:22.426Z,13.83
2018-10-05T21:43:50.149Z,14.06
2018-10-05T21:46:17.938Z,13.96
2018-10-05T21:48:45.694Z,13.85
2018-10-05T21:51:13.528Z,13.56
2018-10-05T21:53:41.306Z,13.49
2018-10-05T21:56:09.031Z,13.31
2018-10-05T21:58:36.793Z,13.31
2018-10-05T22:01:04.551Z,13.64
2018-10-05T22:03:32.406Z,13.35
2018-10-05T22:06:00.204Z,13.35
2018-10-05T22:08:28.009Z,13.09
2018-10-05T22:10:55.764Z,13.15
2018-10-05T22:13:23.479Z,13.07
2018-10-05T22:15:51.191Z,13.40
2018-10-05T22:18:18.903Z,13.83
2018-10-05T22:20:46.640Z,13.99
2018-10-05T22:23:14.344Z,13.88
2018-10-05T22:25:42.046Z,13.78
2018-10-05T22:28:09.742Z,13.40
2018-10-05T22:30:37.598Z,13.03
2018-10-05T22:33:05.463Z,13.05
2018-10-05T22:35:34.064Z,13.05
2018-10-05T22:38:01.922Z,13.08
2018-10-05T22:40:30.161Z,12.86
2018-10-05T22:42:58.027Z,12.83
2018-10-05T22:45:25.878Z,12.92
2018-10-05T22:47:53.743Z,12.92
2018-10-05T22:50:21.665Z,12.73
2018-10-05T22:52:49.510Z,12.75
2018-10-05T22:55:17.378Z,12.68
2018-10-05T22:57:45.238Z,12.64
2018-10-05T23:00:13.132Z,12.82
2018-10-05T23:02:41.009Z,12.77
2018-10-05T23:05:08.895Z,12.47
2018-10-05T23:07:36.767Z,12.57
2018-10-05T23:10:05.002Z,12.57
2018-10-05T23:12:32.878Z,12.65
2018-10-05T23:15:02.247Z,12.32
2018-10-05T23:17:30.131Z,12.16
2018-10-05T23:19:58.000Z,12.41
2018-10-05T23:22:25.959Z,12.63
2018-10-05T23:24:53.818Z,12.41
2018-10-05T23:27:21.683Z,12.42
2018-10-05T23:29:49.579Z,12.25
2018-10-05T23:32:17.471Z,12.75
2018-10-05T23:34:45.350Z,12.38
2018-10-05T23:37:13.223Z,12.45
2018-10-05T23:39:42.087Z,12.37
2018-10-05T23:42:10.044Z,12.57
2018-10-05T23:44:37.906Z,12.51
2018-10-05T23:47:06.027Z,12.19
2018-10-05T23:49:33.962Z,11.93
2018-10-05T23:52:12.838Z,12.62
2018-10-05T23:54:40.689Z,12.41
2018-10-05T23:57:08.542Z,11.90
2018-10-05T23:59:36.402Z,11.83
